Time;durP1;ratioP1;P1;durP2;ratioP2;P2;SDS_P1;SDS_P2;PMS_P1;PMS_P2;Temp;Humidity;BMP_temperature;BMP_pressure;BME280_temperature;BME280_humidity;BME280_pressure;Samples;Min_cycle;Max_cycle;Signal;HPM_P1;HPM_P2
2023/12/11 00:01:00;;;;;;;;;;;;;;;3.71;94.56;99071.32;134010;1304;22467;-84
2023/12/11 00:04:01;;;;;;;;;;;;;;;3.69;94.45;99075.34;133972;1304;23205;-83
2023/12/11 00:07:01;;;;;;;;;;;;;;;3.68;94.62;99069.35;133999;1306;22519;-83
2023/12/11 00:10:02;;;;;;;;;;;;;;;3.67;94.44;99062.07;133976;1301;22577;-83
2023/12/11 00:13:03;;;;;;;;;;;;;;;3.66;94.46;99055.00;133998;1303;22466;-83
2023/12/11 00:16:06;;;;;;;;;;;;;;;3.65;94.70;99055.15;134000;1307;22463;-85
2023/12/11 00:19:06;;;;;;;;;;;;;;;3.65;94.38;99063.71;133971;1307;23118;-85
2023/12/11 00:22:06;;;;;;;;;;;;;;;3.65;94.74;99062.98;134025;1300;23288;-83
2023/12/11 00:25:07;;;;;;;;;;;;;;;3.64;94.58;99068.35;133986;1301;22464;-84
2023/12/11 00:28:07;;;;;;;;;;;;;;;3.65;94.85;99068.60;134044;1300;23054;-83
2023/12/11 00:31:08;;;;;;;;;;;;;;;3.64;94.74;99066.37;134027;1306;23241;-85
2023/12/11 00:34:08;;;;;;;;;;;;;;;3.65;94.95;99059.84;134001;1303;22487;-84
2023/12/11 00:37:09;;;;;;;;;;;;;;;3.64;94.78;99059.02;134024;1299;22553;-84
2023/12/11 00:40:09;;;;;;;;;;;;;;;3.64;95.08;99064.13;134020;1301;22434;-83
2023/12/11 00:43:09;;;;;;;;;;;;;;;3.63;94.92;99077.52;133997;1301;22473;-84
2023/12/11 00:46:11;;;;;;;;;;;;;;;3.62;95.19;99082.27;133999;1307;23262;-84
2023/12/11 00:49:11;;;;;;;;;;;;;;;3.62;95.22;99079.88;134004;1304;22461;-84
2023/12/11 00:52:11;;;;;;;;;;;;;;;3.62;95.04;99078.70;134010;1306;25017;-85
2023/12/11 00:55:12;;;;;;;;;;;;;;;3.63;95.11;99078.41;134001;1301;22558;-84
2023/12/11 00:58:18;;;;;;;;;;;;;;;3.65;94.94;99077.54;134030;1299;22705;-83
2023/12/11 01:01:18;;;;;;;;;;;;;;;3.65;95.04;99075.19;133976;1299;22462;-84
2023/12/11 01:04:18;;;;;;;;;;;;;;;3.67;95.59;99072.77;134019;1301;23352;-84
2023/12/11 01:07:19;;;;;;;;;;;;;;;3.68;95.48;99067.18;134015;1307;22487;-82
2023/12/11 01:10:19;;;;;;;;;;;;;;;3.69;95.53;99063.64;134018;1299;23379;-84
2023/12/11 01:13:20;;;;;;;;;;;;;;;3.68;95.64;99064.36;133991;1306;22438;-85
2023/12/11 01:16:20;;;;;;;;;;;;;;;3.67;95.93;99062.03;133934;1301;22454;-85
2023/12/11 01:19:20;;;;;;;;;;;;;;;3.67;95.96;99055.08;134010;1300;22479;-83
2023/12/11 01:22:21;;;;;;;;;;;;;;;3.67;96.33;99058.88;134018;1300;22569;-84
2023/12/11 01:25:23;;;;;;;;;;;;;;;3.65;96.16;99045.80;133984;1300;22531;-83
2023/12/11 01:28:26;;;;;;;;;;;;;;;3.64;96.36;99038.77;134000;1300;23192;-84
2023/12/11 01:31:26;;;;;;;;;;;;;;;3.63;96.38;99030.45;134012;1288;22475;-84
2023/12/11 01:34:27;;;;;;;;;;;;;;;3.62;96.80;99018.50;134024;1298;22439;-83
2023/12/11 01:37:27;;;;;;;;;;;;;;;3.61;96.66;99011.41;134024;1299;22472;-84
2023/12/11 01:40:28;;;;;;;;;;;;;;;3.59;97.11;99001.96;133994;1301;23203;-84
2023/12/11 01:43:28;;;;;;;;;;;;;;;3.58;96.63;98990.15;134028;1306;22581;-85
2023/12/11 01:46:29;;;;;;;;;;;;;;;3.55;96.96;98980.16;133997;1301;22455;-85
2023/12/11 01:49:29;;;;;;;;;;;;;;;3.51;97.39;98983.00;133890;1288;22482;-81
2023/12/11 01:52:30;;;;;;;;;;;;;;;3.46;97.66;98994.66;133999;1301;23242;-83
2023/12/11 01:55:31;;;;;;;;;;;;;;;3.42;98.24;99013.55;133990;1298;23301;-81
2023/12/11 01:58:32;;;;;;;;;;;;;;;3.38;98.57;99029.70;134004;1304;22785;-84
2023/12/11 02:01:34;;;;;;;;;;;;;;;3.36;98.91;99033.70;134009;1298;22516;-84
2023/12/11 02:04:34;;;;;;;;;;;;;;;3.36;99.20;99013.58;134012;1298;23113;-83
2023/12/11 02:07:35;;;;;;;;;;;;;;;3.37;99.53;99018.39;133959;1301;22526;-84
2023/12/11 02:10:36;;;;;;;;;;;;;;;3.36;99.76;99017.80;133918;1299;22506;-84
2023/12/11 02:13:38;;;;;;;;;;;;;;;3.35;99.93;99010.23;133998;1298;22485;-82
2023/12/11 02:16:38;;;;;;;;;;;;;;;3.33;99.84;98986.66;133887;1298;179267;-84
2023/12/11 02:19:39;;;;;;;;;;;;;;;3.31;99.97;98967.90;134012;1304;23369;-82
2023/12/11 02:22:39;;;;;;;;;;;;;;;3.31;100.00;98947.52;134003;1301;22513;-83
2023/12/11 02:25:40;;;;;;;;;;;;;;;3.28;100.00;98921.92;134014;1306;22477;-79
2023/12/11 02:28:40;;;;;;;;;;;;;;;3.25;100.00;98903.52;134007;1300;22471;-85
2023/12/11 02:31:41;;;;;;;;;;;;;;;3.23;100.00;98907.77;134018;1301;22503;-83
2023/12/11 02:34:41;;;;;;;;;;;;;;;3.22;100.00;98926.96;134001;1298;22561;-81
2023/12/11 02:37:42;;;;;;;;;;;;;;;3.18;100.00;98935.33;134013;1303;22460;-84
2023/12/11 02:40:42;;;;;;;;;;;;;;;3.15;100.00;98938.38;133868;1306;23890;-83
2023/12/11 02:43:44;;;;;;;;;;;;;;;3.14;100.00;98948.59;134039;1303;23197;-86
2023/12/11 02:46:44;;;;;;;;;;;;;;;3.13;100.00;98947.52;134013;1301;23243;-83
2023/12/11 02:49:44;;;;;;;;;;;;;;;3.13;100.00;98934.77;133992;1306;23224;-81
2023/12/11 02:52:48;;;;;;;;;;;;;;;3.12;100.00;98912.75;134009;1301;22467;-83
2023/12/11 02:55:55;;;;;;;;;;;;;;;3.17;100.00;98886.39;134015;1305;22491;-82
2023/12/11 02:58:56;;;;;;;;;;;;;;;3.20;100.00;98887.63;134007;1299;22559;-81
2023/12/11 03:01:56;;;;;;;;;;;;;;;3.17;100.00;98896.98;133998;1301;23211;-81
2023/12/11 03:04:57;;;;;;;;;;;;;;;3.13;100.00;98891.89;134009;1304;22564;-84
2023/12/11 03:07:57;;;;;;;;;;;;;;;3.09;100.00;98877.77;133989;1306;22503;-83
2023/12/11 03:10:57;;;;;;;;;;;;;;;3.06;100.00;98866.98;134003;1301;22474;-84
2023/12/11 03:14:00;;;;;;;;;;;;;;;3.03;100.00;98863.45;134004;1304;22456;-84
2023/12/11 03:17:00;;;;;;;;;;;;;;;2.99;100.00;98865.67;134000;1304;22478;-82
2023/12/11 03:20:01;;;;;;;;;;;;;;;2.96;100.00;98870.92;133990;1306;23717;-83
2023/12/11 03:23:04;;;;;;;;;;;;;;;2.93;100.00;98869.97;133985;1306;23338;-82
2023/12/11 03:26:04;;;;;;;;;;;;;;;2.90;100.00;98861.14;133908;1297;22476;-82
2023/12/11 03:29:07;;;;;;;;;;;;;;;2.88;100.00;98849.95;134030;1303;22471;-82
2023/12/11 03:32:08;;;;;;;;;;;;;;;2.86;100.00;98842.65;133985;1297;22462;-84
2023/12/11 03:35:08;;;;;;;;;;;;;;;2.84;100.00;98838.64;133994;1301;22460;-83
2023/12/11 03:38:09;;;;;;;;;;;;;;;2.83;100.00;98836.17;133883;1304;22464;-83
2023/12/11 03:41:12;;;;;;;;;;;;;;;2.84;100.00;98830.14;134010;1301;22460;-84
2023/12/11 03:44:13;;;;;;;;;;;;;;;2.86;100.00;98824.70;134027;1301;23241;-82
2023/12/11 03:47:13;;;;;;;;;;;;;;;2.85;100.00;98816.94;133991;1306;22479;-83
2023/12/11 03:50:13;;;;;;;;;;;;;;;2.87;100.00;98808.83;134019;1300;22912;-83
2023/12/11 03:53:14;;;;;;;;;;;;;;;2.90;100.00;98801.73;134054;1306;22444;-83
2023/12/11 03:56:14;;;;;;;;;;;;;;;2.93;100.00;98803.52;134022;1301;22453;-83
2023/12/11 03:59:15;;;;;;;;;;;;;;;2.98;100.00;98801.89;134011;1303;24444;-82
2023/12/11 04:02:17;;;;;;;;;;;;;;;3.01;100.00;98800.67;134008;1306;22462;-83
2023/12/11 04:05:18;;;;;;;;;;;;;;;3.04;100.00;98795.10;134007;1298;23023;-83
2023/12/11 04:08:18;;;;;;;;;;;;;;;3.06;100.00;98795.27;134015;1298;23324;-83
2023/12/11 04:11:19;;;;;;;;;;;;;;;3.07;100.00;98787.33;133985;1301;23351;-82
2023/12/11 04:14:19;;;;;;;;;;;;;;;3.10;100.00;98786.54;133981;1301;22460;-82
2023/12/11 04:17:19;;;;;;;;;;;;;;;3.10;100.00;98768.81;134002;1298;22454;-82
2023/12/11 04:20:22;;;;;;;;;;;;;;;3.13;100.00;98770.15;133991;1306;22428;-83
2023/12/11 04:23:23;;;;;;;;;;;;;;;3.13;100.00;98768.52;134025;1294;22465;-82
2023/12/11 04:26:24;;;;;;;;;;;;;;;3.13;100.00;98767.17;134005;1301;22486;-82
2023/12/11 04:29:26;;;;;;;;;;;;;;;3.15;100.00;98771.73;134007;1301;22533;-84
2023/12/11 04:32:30;;;;;;;;;;;;;;;3.17;100.00;98771.36;133994;1298;22463;-82
2023/12/11 04:35:32;;;;;;;;;;;;;;;3.17;100.00;98770.36;133969;1300;22566;-82
2023/12/11 04:38:33;;;;;;;;;;;;;;;3.17;100.00;98771.98;133976;1301;22433;-81
2023/12/11 04:41:36;;;;;;;;;;;;;;;3.20;100.00;98767.58;134025;1304;22523;-82
2023/12/11 04:44:37;;;;;;;;;;;;;;;3.22;100.00;98757.39;134017;1298;23893;-82
2023/12/11 04:47:37;;;;;;;;;;;;;;;3.25;100.00;98758.64;133998;1299;22459;-83
2023/12/11 04:50:37;;;;;;;;;;;;;;;3.27;100.00;98757.08;134004;1298;22499;-83
2023/12/11 04:53:38;;;;;;;;;;;;;;;3.31;100.00;98757.70;134009;1301;23465;-83
2023/12/11 04:56:41;;;;;;;;;;;;;;;3.36;100.00;98756.88;134002;1301;22493;-83
2023/12/11 04:59:41;;;;;;;;;;;;;;;3.41;100.00;98751.45;134009;1301;22464;-83
2023/12/11 05:02:42;;;;;;;;;;;;;;;3.46;100.00;98744.55;133984;1298;22460;-83
2023/12/11 05:05:45;;;;;;;;;;;;;;;3.48;100.00;98744.10;134000;1301;22449;-83
2023/12/11 05:08:48;;;;;;;;;;;;;;;3.50;100.00;98741.31;133998;1298;22503;-83
2023/12/11 05:11:48;;;;;;;;;;;;;;;3.50;100.00;98739.48;134009;1299;22471;-83
2023/12/11 05:14:49;;;;;;;;;;;;;;;3.50;100.00;98737.39;134002;1298;22525;-84
2023/12/11 05:17:49;;;;;;;;;;;;;;;3.50;100.00;98739.85;133991;1301;23319;-83
2023/12/11 05:20:52;;;;;;;;;;;;;;;3.50;100.00;98740.38;133989;1292;22451;-83
2023/12/11 05:23:53;;;;;;;;;;;;;;;3.51;100.00;98737.52;134027;1306;23365;-83
2023/12/11 05:26:54;;;;;;;;;;;;;;;3.51;100.00;98734.67;133986;1306;22466;-82
2023/12/11 05:29:54;;;;;;;;;;;;;;;3.53;100.00;98735.86;134017;1298;23244;-81
2023/12/11 05:32:54;;;;;;;;;;;;;;;3.54;100.00;98731.38;133989;1298;22432;-83
2023/12/11 05:36:00;;;;;;;;;;;;;;;3.54;100.00;98731.38;134031;1295;22450;-83
2023/12/11 05:39:00;;;;;;;;;;;;;;;3.54;100.00;98736.10;134008;1301;22524;-81
2023/12/11 05:42:01;;;;;;;;;;;;;;;3.55;100.00;98735.52;133921;1307;22503;-82
2023/12/11 05:45:01;;;;;;;;;;;;;;;3.57;100.00;98733.55;134030;1306;22476;-83
2023/12/11 05:48:01;;;;;;;;;;;;;;;3.59;100.00;98731.96;134032;1298;22468;-83
2023/12/11 05:51:02;;;;;;;;;;;;;;;3.61;100.00;98729.89;133981;1304;22460;-83
2023/12/11 05:54:03;;;;;;;;;;;;;;;3.63;100.00;98730.52;133975;1298;22432;-82
2023/12/11 05:57:03;;;;;;;;;;;;;;;3.64;100.00;98732.89;134011;1306;22544;-80
2023/12/11 06:00:06;;;;;;;;;;;;;;;3.64;100.00;98737.58;133935;1304;22513;-85
2023/12/11 06:03:07;;;;;;;;;;;;;;;3.65;100.00;98737.64;133995;1304;22505;-80
2023/12/11 06:06:14;;;;;;;;;;;;;;;3.66;100.00;98739.31;133998;1301;23252;-82
2023/12/11 06:09:14;;;;;;;;;;;;;;;3.68;100.00;98745.72;133838;1302;22596;-82
2023/12/11 06:12:15;;;;;;;;;;;;;;;3.70;100.00;98746.74;134008;1302;23544;-84
2023/12/11 06:15:17;;;;;;;;;;;;;;;3.72;100.00;98752.37;133997;1303;22552;-87
2023/12/11 06:18:18;;;;;;;;;;;;;;;3.74;100.00;98754.58;133964;1300;23141;-85
2023/12/11 06:21:19;;;;;;;;;;;;;;;3.78;100.00;98751.67;134018;1298;22631;-85
2023/12/11 06:24:19;;;;;;;;;;;;;;;3.82;100.00;98755.98;133999;1304;22459;-84
2023/12/11 06:27:22;;;;;;;;;;;;;;;3.87;100.00;98752.95;134007;1304;23317;-85
2023/12/11 06:30:23;;;;;;;;;;;;;;;3.91;100.00;98753.50;134022;1303;22473;-85
2023/12/11 06:33:23;;;;;;;;;;;;;;;3.96;100.00;98750.05;134020;1301;22444;-86
2023/12/11 06:36:25;;;;;;;;;;;;;;;4.00;100.00;98742.45;134009;1298;24504;-85
2023/12/11 06:39:26;;;;;;;;;;;;;;;4.04;100.00;98747.29;134032;1302;22477;-85
2023/12/11 06:42:27;;;;;;;;;;;;;;;4.09;100.00;98751.38;134058;1304;22455;-84
2023/12/11 06:45:27;;;;;;;;;;;;;;;4.12;99.92;98753.89;134019;1301;22488;-84
2023/12/11 06:48:31;;;;;;;;;;;;;;;4.16;99.98;98753.27;134023;1305;23263;-82
2023/12/11 06:51:35;;;;;;;;;;;;;;;4.19;99.97;98749.05;133951;1306;23157;-86
2023/12/11 06:54:35;;;;;;;;;;;;;;;4.23;99.87;98746.44;134006;1306;22448;-86
2023/12/11 06:57:35;;;;;;;;;;;;;;;4.26;99.67;98752.15;134031;1301;22461;-82
2023/12/11 07:00:36;;;;;;;;;;;;;;;4.28;99.74;98762.68;134028;1301;22485;-85
2023/12/11 07:03:40;;;;;;;;;;;;;;;4.28;99.64;98759.00;134008;1304;23250;-85
2023/12/11 07:06:41;;;;;;;;;;;;;;;4.29;99.57;98755.59;133915;1301;22443;-83
2023/12/11 07:09:46;;;;;;;;;;;;;;;4.30;99.52;98753.87;134016;1302;22495;-85
2023/12/11 07:12:47;;;;;;;;;;;;;;;4.32;99.40;98762.28;134027;1306;22512;-85
2023/12/11 07:15:47;;;;;;;;;;;;;;;4.33;99.32;98757.04;134008;1298;22467;-85
2023/12/11 07:18:54;;;;;;;;;;;;;;;4.35;99.38;98756.02;134042;1295;22460;-84
2023/12/11 07:21:54;;;;;;;;;;;;;;;4.37;99.37;98759.14;133917;1306;23246;-85
2023/12/11 07:24:55;;;;;;;;;;;;;;;4.39;99.22;98764.31;134002;1301;22528;-85
2023/12/11 07:27:55;;;;;;;;;;;;;;;4.43;99.13;98767.27;134015;1295;22481;-85
2023/12/11 07:30:58;;;;;;;;;;;;;;;4.45;99.22;98768.40;133982;1307;22460;-84
2023/12/11 07:33:59;;;;;;;;;;;;;;;4.51;99.08;98770.09;134053;1306;22573;-83
2023/12/11 07:36:59;;;;;;;;;;;;;;;4.58;99.18;98771.11;134016;1299;22574;-85
2023/12/11 07:40:00;;;;;;;;;;;;;;;4.64;99.17;98773.27;134013;1305;22462;-84
2023/12/11 07:43:00;;;;;;;;;;;;;;;4.71;98.97;98773.97;133792;1307;23367;-86
2023/12/11 07:46:01;;;;;;;;;;;;;;;4.85;99.00;98772.93;134012;1306;23333;-85
2023/12/11 07:49:01;;;;;;;;;;;;;;;4.99;99.01;98775.17;134014;1304;22529;-80
2023/12/11 07:52:02;;;;;;;;;;;;;;;5.04;98.50;98775.93;134038;1306;22469;-84
2023/12/11 07:55:02;;;;;;;;;;;;;;;5.07;98.34;98775.94;134042;1304;22513;-83
2023/12/11 07:58:06;;;;;;;;;;;;;;;5.10;98.11;98777.97;134033;1304;22489;-84
2023/12/11 08:01:10;;;;;;;;;;;;;;;5.15;98.00;98778.34;134094;1298;22511;-83
2023/12/11 08:04:12;;;;;;;;;;;;;;;5.17;97.44;98771.63;134051;1302;23168;-83
2023/12/11 08:07:13;;;;;;;;;;;;;;;5.20;97.80;98775.08;134062;1304;22508;-83
2023/12/11 08:10:16;;;;;;;;;;;;;;;5.21;97.41;98775.27;134050;1299;22481;-83
2023/12/11 08:13:16;;;;;;;;;;;;;;;5.24;97.14;98777.09;134057;1302;22447;-83
2023/12/11 08:16:16;;;;;;;;;;;;;;;5.28;96.90;98780.34;134085;1302;22460;-84
2023/12/11 08:19:17;;;;;;;;;;;;;;;5.31;96.80;98783.98;134061;1307;22486;-82
2023/12/11 08:22:18;;;;;;;;;;;;;;;5.34;96.69;98787.00;134057;1304;22459;-83
2023/12/11 08:25:18;;;;;;;;;;;;;;;5.38;96.30;98785.55;134061;1306;22451;-82
2023/12/11 08:28:18;;;;;;;;;;;;;;;5.42;96.23;98784.09;134070;1305;22538;-82
2023/12/11 08:31:19;;;;;;;;;;;;;;;5.47;96.39;98784.06;134062;1306;22437;-83
2023/12/11 08:34:20;;;;;;;;;;;;;;;5.49;96.05;98781.56;134070;1301;22469;-82
2023/12/11 08:37:20;;;;;;;;;;;;;;;5.53;95.89;98787.02;134059;1307;22566;-83
2023/12/11 08:40:21;;;;;;;;;;;;;;;5.57;95.95;98782.92;134059;1302;22972;-83
2023/12/11 08:43:21;;;;;;;;;;;;;;;5.61;95.91;98783.73;134071;1288;22467;-84
2023/12/11 08:46:22;;;;;;;;;;;;;;;5.65;95.77;98790.48;134079;1301;22453;-84
2023/12/11 08:49:22;;;;;;;;;;;;;;;5.70;95.32;98790.70;134088;1304;22452;-83
2023/12/11 08:52:23;;;;;;;;;;;;;;;5.75;95.00;98788.48;134060;1304;22489;-83
2023/12/11 08:55:23;;;;;;;;;;;;;;;5.81;95.23;98794.89;134053;1302;23374;-83
2023/12/11 08:58:24;;;;;;;;;;;;;;;5.84;95.20;98795.04;133902;1305;22553;-83
2023/12/11 09:01:28;;;;;;;;;;;;;;;5.88;95.17;98794.67;134045;1307;22457;-84
2023/12/11 09:04:28;;;;;;;;;;;;;;;5.92;94.70;98798.85;134067;1305;22496;-84
2023/12/11 09:07:29;;;;;;;;;;;;;;;5.95;94.64;98797.98;134094;1305;22512;-82
2023/12/11 09:10:29;;;;;;;;;;;;;;;5.98;94.72;98795.83;134073;1305;22470;-76
2023/12/11 09:13:29;;;;;;;;;;;;;;;6.04;94.50;98793.30;134088;1306;22469;-83
2023/12/11 09:16:30;;;;;;;;;;;;;;;6.09;94.00;98801.30;134105;1301;23217;-83
2023/12/11 09:19:32;;;;;;;;;;;;;;;6.16;94.32;98802.52;134056;1305;22461;-85
2023/12/11 09:22:35;;;;;;;;;;;;;;;6.30;93.95;98795.89;134057;1305;22524;-84
2023/12/11 09:25:38;;;;;;;;;;;;;;;6.54;93.71;98792.02;134042;1304;22463;-84
2023/12/11 09:28:39;;;;;;;;;;;;;;;6.69;93.30;98785.91;134065;1306;22469;-83
2023/12/11 09:31:39;;;;;;;;;;;;;;;6.85;92.89;98788.70;134062;1306;22454;-84
2023/12/11 09:34:40;;;;;;;;;;;;;;;6.93;92.05;98782.20;134065;1306;23615;-83
2023/12/11 09:37:41;;;;;;;;;;;;;;;7.03;91.91;98777.42;134058;1306;24449;-84
2023/12/11 09:40:41;;;;;;;;;;;;;;;7.07;91.22;98780.39;134037;1303;22476;-85
2023/12/11 09:43:42;;;;;;;;;;;;;;;7.09;91.02;98779.30;134080;1301;22457;-85
2023/12/11 09:46:49;;;;;;;;;;;;;;;7.13;90.22;98773.95;134031;1301;22480;-84
2023/12/11 09:49:50;;;;;;;;;;;;;;;7.17;89.88;98766.35;133985;1302;23388;-84
2023/12/11 09:52:51;;;;;;;;;;;;;;;7.21;90.36;98769.48;134017;1301;22485;-85
2023/12/11 09:55:52;;;;;;;;;;;;;;;7.22;89.96;98767.63;134001;1305;22486;-82
2023/12/11 09:58:54;;;;;;;;;;;;;;;7.19;89.26;98766.46;133997;1306;23279;-83
2023/12/11 10:01:58;;;;;;;;;;;;;;;7.18;89.33;98760.65;134020;1305;23613;-85
2023/12/11 10:05:08;;;;;;;;;;;;;;;7.16;89.09;98756.96;134014;1306;23514;-84
2023/12/11 10:08:10;;;;;;;;;;;;;;;7.14;89.15;98755.10;134021;1301;23206;-85
2023/12/11 10:11:12;;;;;;;;;;;;;;;7.15;89.29;98748.83;133814;1304;22459;-84
2023/12/11 10:25:26;;;;;;;6.50;2.70;;;;;;;8.00;88.00;98733.54;130416;1294;558283;-81
2023/12/11 10:28:27;;;;;;;8.60;3.20;;;;;;;8.25;86.35;98731.30;130565;1287;299948;-82
2023/12/11 10:31:37;;;;;;;5.90;3.20;;;;;;;8.06;86.17;98724.98;134663;1295;23153;-84
2023/12/11 10:34:42;;;;;;;7.30;3.10;;;;;;;7.85;85.75;98723.55;134644;1288;22464;-82
2023/12/11 10:37:43;;;;;;;7.00;3.40;;;;;;;7.68;86.30;98724.57;134661;1301;22275;-82
2023/12/11 10:40:45;;;;;;;4.40;2.70;;;;;;;7.56;86.42;98715.27;134768;1294;22377;-81
2023/12/11 10:43:49;;;;;;;6.40;2.90;;;;;;;7.45;86.74;98710.36;134644;1301;22379;-82
2023/12/11 10:47:19;;;;;;;5.10;2.50;;;;;;;7.39;87.02;98707.94;134613;1294;22473;-83
2023/12/11 10:50:48;;;;;;;7.80;2.90;;;;;;;7.36;87.07;98697.77;134655;1301;22436;-82
2023/12/11 10:53:52;;;;;;;5.50;2.20;;;;;;;7.36;87.34;98696.09;134600;1301;22516;-82
2023/12/11 10:57:04;;;;;;;5.70;2.70;;;;;;;7.38;87.32;98696.54;134633;1301;22287;-81
2023/12/11 11:00:07;;;;;;;8.00;2.80;;;;;;;7.44;87.35;98692.76;134618;1301;23288;-82
2023/12/11 11:03:11;;;;;;;11.30;2.80;;;;;;;7.50;87.49;98687.21;134647;1301;22246;-82
2023/12/11 11:06:12;;;;;;;4.90;2.50;;;;;;;7.58;87.56;98680.00;134628;1301;22463;-82
2023/12/11 11:09:38;;;;;;;8.00;2.60;;;;;;;7.65;87.58;98675.75;134761;1291;22270;-83
2023/12/11 11:12:49;;;;;;;4.20;2.90;;;;;;;7.73;87.14;98672.36;134546;1301;22497;-83
2023/12/11 11:16:21;;;;;;;7.50;2.30;;;;;;;7.82;87.08;98666.31;134642;1288;22444;-83
2023/12/11 11:19:22;;;;;;;6.50;3.10;;;;;;;7.88;86.55;98665.34;134640;1294;22379;-83
2023/12/11 11:22:23;;;;;;;5.70;2.50;;;;;;;8.07;86.53;98663.54;134583;1294;22386;-83
2023/12/11 11:25:38;;;;;;;6.80;2.60;;;;;;;8.32;85.85;98657.34;134636;1298;22284;-83
2023/12/11 11:28:50;;;;;;;3.50;2.30;;;;;;;8.40;84.98;98652.66;134725;1288;22265;-83
2023/12/11 11:31:53;;;;;;;6.00;2.30;;;;;;;8.42;84.62;98651.25;134739;1301;22383;-84
2023/12/11 11:34:56;;;;;;;7.90;2.80;;;;;;;8.43;84.81;98649.97;134627;1294;22284;-82
2023/12/11 11:38:00;;;;;;;5.80;3.20;;;;;;;8.45;84.93;98648.45;134603;1298;22366;-82
2023/12/11 11:41:20;;;;;;;7.00;2.80;;;;;;;8.51;85.11;98655.21;134632;1301;22424;-82
2023/12/11 11:44:27;;;;;;;5.90;2.50;;;;;;;8.53;84.23;98658.94;134667;1295;22211;-83
2023/12/11 11:47:50;;;;;;;6.30;2.50;;;;;;;8.50;84.15;98656.06;134588;1294;22367;-83
2023/12/11 11:50:54;;;;;;;5.60;2.50;;;;;;;8.43;83.23;98651.39;134790;1301;22332;-82
2023/12/11 11:54:29;;;;;;;;;;;;;;;;;;;;;
2023/12/11 11:57:33;;;;;;;8.00;2.60;;;;;;;8.28;84.14;98648.65;134571;1301;22408;-84
2023/12/11 12:00:40;;;;;;;5.10;2.30;;;;;;;8.22;83.56;98637.34;134615;1294;22394;-84
2023/12/11 12:03:44;;;;;;;6.00;2.90;;;;;;;8.22;84.01;98638.29;134649;1300;22280;-84
2023/12/11 12:06:45;;;;;;;7.60;2.90;;;;;;;8.25;83.83;98636.87;134635;1301;22249;-83
2023/12/11 12:09:59;;;;;;;5.70;2.70;;;;;;;8.27;83.66;98630.22;134607;1299;22330;-84
2023/12/11 12:13:03;;;;;;;;;;;;;;;8.31;84.02;98627.09;134659;1294;22469;-82
2023/12/11 12:16:10;;;;;;;6.60;2.50;;;;;;;8.42;83.86;98624.26;134678;1294;22468;-84
2023/12/11 12:19:11;;;;;;;6.50;2.80;;;;;;;8.54;83.50;98622.58;134557;1301;22231;-85
2023/12/11 12:22:20;;;;;;;6.20;2.60;;;;;;;8.63;83.82;98620.98;134593;1295;22406;-84
2023/12/11 12:25:25;;;;;;;5.20;2.80;;;;;;;8.72;83.97;98617.69;134354;1297;22341;-85
2023/12/11 12:28:46;;;;;;;4.40;2.60;;;;;;;8.79;83.52;98609.06;134379;1303;22370;-84
2023/12/11 12:31:51;;;;;;;5.30;2.60;;;;;;;8.87;83.41;98606.65;134271;1303;22349;-85
2023/12/11 12:34:54;;;;;;;5.00;2.90;;;;;;;8.90;82.84;98605.09;134479;1297;22364;-86
2023/12/11 12:37:57;;;;;;;4.10;2.80;;;;;;;8.91;82.75;98603.10;134626;1303;23571;-89
2023/12/11 12:42:00;;;;;;;4.00;2.70;;;;;;;8.87;81.77;98601.85;134402;1303;22476;-89
2023/12/11 12:45:06;;;;;;;5.20;2.80;;;;;;;8.72;82.07;98602.23;134394;1303;22412;-89
2023/12/11 12:48:42;;;;;;;5.90;2.80;;;;;;;8.64;81.98;98611.52;134358;1300;22658;-87
2023/12/11 12:51:53;;;;;;;3.80;2.70;;;;;;;8.56;82.39;98610.05;134384;1296;22257;-88
2023/12/11 12:55:31;;;;;;;7.70;2.90;;;;;;;8.49;81.81;98609.04;134463;1302;22402;-90
2023/12/11 12:58:57;;;;;;;5.60;2.60;;;;;;;8.49;82.21;98603.91;134388;1295;22373;-87
2023/12/11 13:01:58;;;;;;;6.40;3.60;;;;;;;8.49;82.19;98609.23;134370;1303;22466;-90
2023/12/11 13:05:50;;;;;;;;;;;;;;;;;;;;;
2023/12/11 13:13:31;;;;;;;5.20;2.80;;;;;;;8.33;81.95;98614.19;134332;1300;23033;-86
2023/12/11 13:16:42;;;;;;;6.00;2.80;;;;;;;8.25;81.84;98617.80;134345;1302;22314;-88
2023/12/11 13:19:56;;;;;;;;;;;;;;;;;;;;;
2023/12/11 13:23:03;;;;;;;6.60;2.90;;;;;;;8.02;82.12;98625.73;134472;1297;22304;-88
2023/12/11 13:30:49;;;;;;;4.10;2.40;;;;;;;7.84;82.65;98629.39;134433;1302;22439;-87
2023/12/11 13:34:21;;;;;;;5.80;2.90;;;;;;;7.77;82.95;98630.36;134633;1300;22488;-88
2023/12/11 13:37:48;;;;;;;7.80;3.10;;;;;;;7.71;83.08;98629.67;134600;1300;22379;-84
2023/12/11 13:40:52;;;;;;;7.60;3.80;;;;;;;7.67;83.20;98625.98;134632;1295;22438;-85
2023/12/11 13:44:16;;;;;;;8.10;4.00;;;;;;;7.63;83.22;98627.52;134728;1300;22386;-85
2023/12/11 13:47:45;;;;;;;10.10;3.30;;;;;;;7.61;83.53;98634.68;134682;1298;22514;-85
2023/12/11 13:51:09;;;;;;;7.70;3.80;;;;;;;7.56;83.67;98634.95;134619;1301;22371;-85
2023/12/11 13:54:10;;;;;;;6.40;3.40;;;;;;;7.51;83.78;98633.49;134646;1295;22383;-86
2023/12/11 14:01:46;;;;;;;;;;;;;;;;;;;;;
2023/12/11 14:05:14;;;;;;;5.80;3.50;;;;;;;7.39;84.32;98637.17;134364;1294;22602;-86
2023/12/11 14:08:17;;;;;;;5.60;3.70;;;;;;;7.34;84.54;98635.46;134592;1301;22535;-88
2023/12/11 14:11:18;;;;;;;14.10;7.50;;;;;;;7.31;84.68;98639.27;134701;1293;22490;-87
2023/12/11 14:14:36;;;;;;;24.60;12.30;;;;;;;7.28;84.93;98637.80;134608;1293;22252;-84
2023/12/11 14:17:43;;;;;;;11.70;6.70;;;;;;;7.24;85.20;98643.68;134652;1294;22447;-88
2023/12/11 14:20:47;;;;;;;8.80;4.50;;;;;;;7.20;85.55;98646.95;134576;1294;22488;-82
2023/12/11 14:23:48;;;;;;;10.40;4.40;;;;;;;7.14;86.27;98649.42;134606;1298;22498;-82
2023/12/11 14:26:50;;;;;;;8.40;5.10;;;;;;;7.07;86.66;98647.36;134563;1298;22358;-83
2023/12/11 14:29:59;;;;;;;10.60;4.90;;;;;;;6.98;87.20;98648.48;134638;1301;22415;-82
2023/12/11 14:33:00;;;;;;;7.90;3.70;;;;;;;6.89;87.80;98639.18;134605;1294;22481;-84
2023/12/11 14:36:22;;;;;;;7.00;3.80;;;;;;;6.82;88.11;98637.36;134603;1301;22293;-83
2023/12/11 14:39:26;;;;;;;7.30;3.40;;;;;;;6.76;88.38;98638.29;134599;1301;22496;-83
2023/12/11 14:42:28;;;;;;;9.30;4.10;;;;;;;6.70;88.72;98638.20;134661;1294;22361;-84
2023/12/11 14:45:30;;;;;;;11.40;6.00;;;;;;;6.68;89.26;98635.13;134588;1294;22355;-83
2023/12/11 14:48:31;;;;;;;17.40;7.60;;;;;;;6.66;89.61;98629.56;134608;1302;23141;-84
2023/12/11 14:52:08;;;;;;;14.30;6.60;;;;;;;6.64;89.97;98631.48;134517;1295;22380;-82
2023/12/11 14:55:09;;;;;;;9.90;5.40;;;;;;;6.62;90.19;98628.41;134600;1301;22265;-82
2023/12/11 14:58:14;;;;;;;12.30;5.40;;;;;;;6.61;90.42;98625.62;134590;1297;22320;-83
2023/12/11 15:01:15;;;;;;;13.70;4.50;;;;;;;6.59;90.83;98625.98;134609;1301;23131;-83
2023/12/11 15:04:15;;;;;;;;;;;;;;;6.58;91.01;98627.55;134773;1296;22544;-83
2023/12/11 15:07:57;;;;;;;8.40;5.10;;;;;;;6.56;91.23;98622.34;134648;1294;22479;-83
2023/12/11 15:11:38;;;;;;;;;;;;;;;;;;;;;
2023/12/11 15:15:50;;;;;;;;;;;;;;;;;;;;;
2023/12/11 15:19:22;;;;;;;7.20;3.60;;;;;;;6.52;92.33;98616.30;134560;1296;22427;-83
2023/12/11 15:27:10;;;;;;;9.50;4.00;;;;;;;6.42;93.07;98612.50;134407;1300;22356;-84
2023/12/11 15:31:12;;;;;;;;;;;;;;;;;;;;;
2023/12/11 15:35:59;;;;;;;13.50;7.40;;;;;;;6.33;93.65;98612.14;134255;1296;22369;-83
2023/12/11 15:38:45;;;;;;;18.10;8.90;;;;;;;6.29;93.51;98620.10;134452;1301;22442;-83
2023/12/11 15:41:45;;;;;;;20.00;9.40;;;;;;;6.29;93.86;98615.40;134630;1295;22394;-83
2023/12/11 15:44:48;;;;;;;;;;;;;;;6.28;94.13;98614.39;134593;1295;22470;-83
2023/12/11 15:47:49;;;;;;;22.80;11.50;;;;;;;6.28;94.71;98610.73;134567;1301;22453;-83
2023/12/11 15:51:35;;;;;;;17.10;9.60;;;;;;;6.29;94.34;98611.91;134592;1301;22380;-82
2023/12/11 15:55:28;;;;;;;;;;;;;;;;;;;;;
2023/12/11 15:59:36;;;;;;;8.60;5.20;;;;;;;6.28;94.60;98610.80;134379;1299;23226;-82
2023/12/11 16:08:27;;;;;;;;;;;;;;;;;;;;;
2023/12/11 16:12:32;;;;;;;;;;;;;;;;;;;;;
2023/12/11 16:19:42;;;;;;;13.90;6.50;;;;;;;6.20;95.63;98587.61;134439;1299;22494;-85
2023/12/11 16:22:43;;;;;;;12.20;6.60;;;;;;;6.17;96.02;98585.20;134604;1294;23160;-85
2023/12/11 16:25:44;;;;;;;12.80;6.40;;;;;;;6.14;96.00;98581.30;134761;1298;22373;-85